Prairie Center, Illinois
Current Conditions -  °F | °C
As of 8:55 AM on Saturday 20 Dec 2014 (Local Time) from KVYS Reporting Station
Overcast Overcast  
Wind Chill: -4°   Ceiling: 5500
Heat Index: -1°   Visibility: 7mi
Dew Point: -3°   Wind: 5mph
Humidity: 85%   Direction: 120°ESE
Pressure: 30.28"   Gusts: NA
Location:  41.4349°N, 88.8687°W
Report Text: KVYS 201455Z AUTO 12004KT 7SM OVC055 M01/M03 A3028 RMK AO2 T10121034
Loading
Personal Weather Stations






























Interactive Weather Map New forecast layout! Learn more

10-Day Weather Forecast

Advertisements
Track Severe Weather on mobile